Time;durP1;ratioP1;P1;durP2;ratioP2;P2;SDS_P1;SDS_P2;PMS_P1;PMS_P2;Temp;Humidity;BMP_temperature;BMP_pressure;BME280_temperature;BME280_humidity;BME280_pressure;Samples;Min_cycle;Max_cycle;Signal;HPM_P1;HPM_P2
2023/04/23 00:02:26;;;;;;;1.70;1.13;;;;;;;;;;10088203;29;20447;-90
2023/04/23 00:07:34;;;;;;;0.70;0.70;;;;;;;;;;10070152;29;20045;-90
2023/04/23 00:12:38;;;;;;;2.33;1.13;;;;;;;;;;10077010;29;20049;-90
2023/04/23 00:17:41;;;;;;;1.27;1.17;;;;;;;;;;10086402;29;20053;-90
2023/04/23 00:22:46;;;;;;;0.85;0.80;;;;;;;;;;10070137;29;20198;-91
2023/04/23 00:27:50;;;;;;;1.65;0.70;;;;;;;;;;10072982;29;20057;-91
2023/04/23 00:32:53;;;;;;;1.13;0.70;;;;;;;;;;10082329;29;20072;-90
2023/04/23 00:37:58;;;;;;;0.60;0.60;;;;;;;;;;10078360;29;20049;-90
2023/04/23 00:43:02;;;;;;;0.80;0.70;;;;;;;;;;10077085;29;20053;-90
2023/04/23 00:48:06;;;;;;;1.08;0.80;;;;;;;;;;10074704;29;20140;-90
2023/04/23 00:53:11;;;;;;;0.80;0.77;;;;;;;;;;10079662;29;20053;-90
2023/04/23 00:58:15;;;;;;;1.48;1.00;;;;;;;;;;10071653;29;20522;-90
2023/04/23 01:03:20;;;;;;;0.55;0.50;;;;;;;;;;10086177;29;20055;-91
2023/04/23 01:08:25;;;;;;;0.90;0.63;;;;;;;;;;10070512;29;20061;-90
2023/04/23 01:13:29;;;;;;;2.00;1.17;;;;;;;;;;10076242;29;20530;-90
2023/04/23 01:18:34;;;;;;;1.75;1.10;;;;;;;;;;10075938;29;20579;-90
2023/04/23 01:23:39;;;;;;;1.63;1.27;;;;;;;;;;10076949;29;20076;-91
2023/04/23 01:28:46;;;;;;;1.70;1.60;;;;;;;;;;10079146;29;20072;-90
2023/04/23 01:33:50;;;;;;;2.08;1.88;;;;;;;;;;10076454;29;20420;-91
2023/04/23 01:38:55;;;;;;;2.15;1.80;;;;;;;;;;10074521;29;20101;-90
2023/04/23 01:43:59;;;;;;;2.90;1.90;;;;;;;;;;10073080;29;20093;-91
2023/04/23 01:49:03;;;;;;;2.35;1.73;;;;;;;;;;10078776;29;20093;-91
2023/04/23 01:54:08;;;;;;;1.92;1.40;;;;;;;;;;10074825;29;20136;-91
2023/04/23 01:59:11;;;;;;;5.65;2.83;;;;;;;;;;10076886;29;20044;-90
2023/04/23 02:04:16;;;;;;;3.65;2.78;;;;;;;;;;10074273;29;20151;-91
2023/04/23 02:09:21;;;;;;;2.17;1.90;;;;;;;;;;10076251;29;20045;-90
2023/04/23 02:14:24;;;;;;;1.50;1.30;;;;;;;;;;10073392;29;20068;-90
2023/04/23 02:19:30;;;;;;;1.63;1.23;;;;;;;;;;10089430;29;20048;-90
2023/04/23 02:24:35;;;;;;;1.33;1.20;;;;;;;;;;10081465;29;20049;-91
2023/04/23 02:29:38;;;;;;;1.42;1.10;;;;;;;;;;10088202;29;21800;-90
2023/04/23 02:34:43;;;;;;;1.92;1.30;;;;;;;;;;10095147;29;20066;-90
2023/04/23 02:39:47;;;;;;;1.40;1.08;;;;;;;;;;10094404;29;20045;-90
2023/04/23 02:44:51;;;;;;;1.00;0.90;;;;;;;;;;10089526;29;20055;-91
2023/04/23 02:49:56;;;;;;;0.80;0.80;;;;;;;;;;10107706;29;20522;-90
2023/04/23 02:55:04;;;;;;;1.30;1.00;;;;;;;;;;10112586;29;20092;-90
2023/04/23 03:00:11;;;;;;;1.52;0.90;;;;;;;;;;10108886;29;20081;-90
2023/04/23 03:05:17;;;;;;;1.40;0.93;;;;;;;;;;10109276;29;20080;-90
2023/04/23 03:10:22;;;;;;;1.20;1.10;;;;;;;;;;10116666;29;20124;-90
2023/04/23 03:15:26;;;;;;;1.60;1.13;;;;;;;;;;10106168;29;20661;-91
2023/04/23 03:20:30;;;;;;;0.90;0.80;;;;;;;;;;10110591;29;20514;-90
2023/04/23 03:25:35;;;;;;;1.25;1.10;;;;;;;;;;10109822;29;20475;-91
2023/04/23 03:30:39;;;;;;;2.05;1.50;;;;;;;;;;10133402;29;20053;-90
2023/04/23 03:35:43;;;;;;;1.38;1.27;;;;;;;;;;10109788;29;21082;-91
2023/04/23 03:40:53;;;;;;;1.30;1.20;;;;;;;;;;10114057;29;20112;-90
2023/04/23 03:45:57;;;;;;;1.43;1.20;;;;;;;;;;10106618;29;20044;-90
2023/04/23 03:51:01;;;;;;;1.10;1.00;;;;;;;;;;10106782;29;20416;-90
2023/04/23 03:56:18;;;;;;;0.98;0.82;;;;;;;;;;10109037;29;20086;-90
2023/04/23 04:01:31;;;;;;;1.13;0.98;;;;;;;;;;10112293;29;20467;-90
2023/04/23 04:06:34;;;;;;;1.10;0.95;;;;;;;;;;10118189;29;20139;-90
2023/04/23 04:11:39;;;;;;;1.55;1.30;;;;;;;;;;10133943;29;20056;-90
2023/04/23 04:16:44;;;;;;;;;;;;;;;;;;10083559;29;20144;-90
2023/04/23 04:21:47;;;;;;;1.08;0.90;;;;;;;;;;10118527;29;19930;-91
2023/04/23 04:26:54;;;;;;;1.10;0.90;;;;;;;;;;10085579;29;20088;-90
2023/04/23 04:31:58;;;;;;;1.30;0.90;;;;;;;;;;10075627;29;20056;-90
2023/04/23 04:37:01;;;;;;;0.77;0.77;;;;;;;;;;10111669;29;20499;-90
2023/04/23 04:42:06;;;;;;;1.15;0.60;;;;;;;;;;10086694;29;20069;-91
2023/04/23 04:47:12;;;;;;;0.73;0.73;;;;;;;;;;10098237;29;20053;-90
2023/04/23 04:52:15;;;;;;;0.70;0.70;;;;;;;;;;10084485;29;20472;-90
2023/04/23 04:57:21;;;;;;;1.00;0.73;;;;;;;;;;10080069;29;20108;-91
2023/04/23 05:02:25;;;;;;;1.15;0.75;;;;;;;;;;10075347;29;20069;-90
2023/04/23 05:07:28;;;;;;;0.73;0.70;;;;;;;;;;10075694;29;20060;-91
2023/04/23 05:12:33;;;;;;;1.10;1.00;;;;;;;;;;10077894;29;20048;-90
2023/04/23 05:17:37;;;;;;;0.80;0.80;;;;;;;;;;10073704;29;20065;-90
2023/04/23 05:22:43;;;;;;;1.55;0.88;;;;;;;;;;10090797;29;20158;-90
2023/04/23 05:27:48;;;;;;;0.90;0.83;;;;;;;;;;10080884;29;20151;-90
2023/04/23 05:32:52;;;;;;;1.00;0.90;;;;;;;;;;10080845;29;20048;-90
2023/04/23 05:37:56;;;;;;;1.48;1.25;;;;;;;;;;10089290;29;20049;-91
2023/04/23 05:43:01;;;;;;;1.60;1.33;;;;;;;;;;10096140;29;20053;-91
2023/04/23 05:48:05;;;;;;;1.13;0.90;;;;;;;;;;10073866;29;20045;-91
2023/04/23 05:53:08;;;;;;;1.10;0.90;;;;;;;;;;10078621;29;20578;-91
2023/04/23 05:58:14;;;;;;;1.40;1.02;;;;;;;;;;10073614;29;20140;-91
2023/04/23 06:03:17;;;;;;;1.05;0.90;;;;;;;;;;10073189;29;20254;-90
2023/04/23 06:08:21;;;;;;;1.00;0.90;;;;;;;;;;10079184;29;20059;-91
2023/04/23 06:13:29;;;;;;;2.10;1.00;;;;;;;;;;10073050;29;20148;-91
2023/04/23 06:18:33;;;;;;;0.90;0.90;;;;;;;;;;10078363;29;20057;-91
2023/04/23 06:23:36;;;;;;;1.48;0.88;;;;;;;;;;10065454;29;20053;-91
2023/04/23 06:28:43;;;;;;;1.08;0.98;;;;;;;;;;10078612;29;20081;-91
2023/04/23 06:34:05;;;;;;;1.38;1.10;;;;;;;;;;10100496;29;20049;-90
2023/04/23 06:39:09;;;;;;;1.88;1.20;;;;;;;;;;10072655;29;20057;-90
2023/04/23 06:44:14;;;;;;;1.77;1.30;;;;;;;;;;10081045;29;20066;-91
2023/04/23 06:49:27;;;;;;;1.83;1.40;;;;;;;;;;10080980;29;20156;-90
2023/04/23 06:54:30;;;;;;;1.13;0.93;;;;;;;;;;10079588;29;20092;-90
2023/04/23 06:59:35;;;;;;;1.95;1.27;;;;;;;;;;10071391;29;20415;-91
2023/04/23 07:04:38;;;;;;;3.55;2.13;;;;;;;;;;10070880;29;20523;-92
2023/04/23 07:09:42;;;;;;;1.83;1.55;;;;;;;;;;10077859;29;20272;-91
2023/04/23 07:14:47;;;;;;;2.45;2.13;;;;;;;;;;10112470;29;20168;-90
2023/04/23 07:19:50;;;;;;;3.60;2.28;;;;;;;;;;10086568;29;20059;-91
2023/04/23 07:24:54;;;;;;;1.48;1.38;;;;;;;;;;10087131;29;20077;-90
2023/04/23 07:30:00;;;;;;;1.08;0.90;;;;;;;;;;10093798;29;20069;-91
2023/04/23 07:35:04;;;;;;;1.50;1.02;;;;;;;;;;10078929;29;20128;-91
2023/04/23 07:40:08;;;;;;;1.15;1.00;;;;;;;;;;10082981;29;20041;-90
2023/04/23 07:45:14;;;;;;;1.77;1.50;;;;;;;;;;10103594;29;20846;-90
2023/04/23 07:50:17;;;;;;;1.90;1.20;;;;;;;;;;10083181;29;20468;-91
2023/04/23 07:55:21;;;;;;;2.30;1.30;;;;;;;;;;10092738;29;20060;-91
2023/04/23 08:00:26;;;;;;;1.95;1.25;;;;;;;;;;10087157;29;20385;-90
2023/04/23 08:05:29;;;;;;;2.10;1.40;;;;;;;;;;10096649;29;20468;-90
2023/04/23 08:10:33;;;;;;;2.33;1.70;;;;;;;;;;10112670;29;20053;-90
2023/04/23 08:15:38;;;;;;;2.83;1.50;;;;;;;;;;10091127;29;20117;-90
2023/04/23 08:20:41;;;;;;;1.90;1.27;;;;;;;;;;10083603;29;20483;-90
2023/04/23 08:25:45;;;;;;;2.55;1.30;;;;;;;;;;10090083;29;20055;-90
2023/04/23 08:30:50;;;;;;;3.92;1.50;;;;;;;;;;10086956;29;20148;-91
2023/04/23 08:35:53;;;;;;;2.03;1.30;;;;;;;;;;10068425;29;20535;-91
2023/04/23 08:40:58;;;;;;;3.63;1.42;;;;;;;;;;10086145;29;20127;-91
2023/04/23 08:46:04;;;;;;;1.88;1.65;;;;;;;;;;10091174;29;20049;-91
2023/04/23 08:51:10;;;;;;;1.88;1.23;;;;;;;;;;10083524;29;20100;-91
2023/04/23 08:56:14;;;;;;;1.20;1.08;;;;;;;;;;10083264;29;20061;-90
2023/04/23 09:01:19;;;;;;;3.47;1.50;;;;;;;;;;10107107;29;20045;-90
2023/04/23 09:06:23;;;;;;;1.60;1.33;;;;;;;;;;10076299;29;20053;-90
2023/04/23 09:11:28;;;;;;;1.38;1.10;;;;;;;;;;10076020;29;20050;-90
2023/04/23 09:16:33;;;;;;;2.73;1.70;;;;;;;;;;10080922;29;20589;-90
2023/04/23 09:21:38;;;;;;;1.48;1.23;;;;;;;;;;10083396;29;20044;-90
2023/04/23 09:26:46;;;;;;;1.97;1.27;;;;;;;;;;10076029;29;20053;-90
2023/04/23 09:31:52;;;;;;;1.75;1.25;;;;;;;;;;10113977;29;20526;-91
2023/04/23 09:36:56;;;;;;;1.30;1.20;;;;;;;;;;10132730;29;20053;-90
2023/04/23 09:42:04;;;;;;;3.97;2.00;;;;;;;;;;10131402;29;20394;-89
2023/04/23 09:47:10;;;;;;;1.60;1.50;;;;;;;;;;10113953;29;20140;-90
2023/04/23 09:52:14;;;;;;;1.60;1.20;;;;;;;;;;10113375;29;20052;-90
2023/04/23 09:57:18;;;;;;;2.83;1.70;;;;;;;;;;10130846;29;20422;-90
2023/04/23 10:02:27;;;;;;;2.13;1.30;;;;;;;;;;10113269;29;20598;-90
2023/04/23 10:07:32;;;;;;;1.45;1.35;;;;;;;;;;10113436;29;20056;-90
2023/04/23 10:12:36;;;;;;;1.70;1.10;;;;;;;;;;10113072;29;20421;-90
2023/04/23 10:17:54;;;;;;;1.40;1.00;;;;;;;;;;10129837;29;20072;-91
2023/04/23 10:23:00;;;;;;;1.00;0.90;;;;;;;;;;10122168;29;20104;-90
2023/04/23 10:28:04;;;;;;;2.60;0.98;;;;;;;;;;10127938;29;20076;-90
2023/04/23 10:33:11;;;;;;;1.33;0.63;;;;;;;;;;10112256;29;20060;-90
2023/04/23 10:38:18;;;;;;;1.20;0.95;;;;;;;;;;10119199;29;20191;-91
2023/04/23 10:43:22;;;;;;;0.80;0.70;;;;;;;;;;10111743;29;20052;-90
2023/04/23 10:48:28;;;;;;;3.33;0.80;;;;;;;;;;10127293;29;20055;-90
2023/04/23 10:53:32;;;;;;;0.80;0.50;;;;;;;;;;10110496;29;20079;-90
2023/04/23 10:58:51;;;;;;;2.35;0.98;;;;;;;;;;10127024;29;20110;-90
2023/04/23 11:03:56;;;;;;;2.65;1.20;;;;;;;;;;10111607;29;20045;-90
2023/04/23 11:09:00;;;;;;;0.80;0.70;;;;;;;;;;10104257;29;20048;-90
2023/04/23 11:14:13;;;;;;;0.73;0.50;;;;;;;;;;10103138;29;20538;-90
2023/04/23 11:19:17;;;;;;;1.15;0.70;;;;;;;;;;10116003;29;20052;-89
2023/04/23 11:24:23;;;;;;;0.85;0.47;;;;;;;;;;10134807;29;20060;-90
2023/04/23 11:29:28;;;;;;;0.50;0.47;;;;;;;;;;10133359;29;20044;-90
2023/04/23 11:34:33;;;;;;;1.13;0.73;;;;;;;;;;10124820;29;20136;-90
2023/04/23 11:39:37;;;;;;;1.85;0.75;;;;;;;;;;10122339;29;20055;-90
2023/04/23 11:44:41;;;;;;;0.70;0.50;;;;;;;;;;10120002;29;20068;-90
2023/04/23 11:49:48;;;;;;;0.50;0.50;;;;;;;;;;10122243;29;20052;-89
2023/04/23 11:54:52;;;;;;;1.10;0.50;;;;;;;;;;10115308;29;20672;-90
2023/04/23 11:59:55;;;;;;;0.85;0.30;;;;;;;;;;10131131;29;20554;-90
2023/04/23 12:05:08;;;;;;;2.00;0.70;;;;;;;;;;10131715;29;20049;-90
2023/04/23 12:10:18;;;;;;;0.63;0.40;;;;;;;;;;10131279;29;20570;-90
2023/04/23 12:15:21;;;;;;;0.82;0.40;;;;;;;;;;10112221;29;20131;-90
2023/04/23 12:20:26;;;;;;;0.68;0.30;;;;;;;;;;10111060;29;20044;-90
2023/04/23 12:25:30;;;;;;;1.02;0.40;;;;;;;;;;10118438;29;20059;-90
2023/04/23 12:30:35;;;;;;;0.75;0.57;;;;;;;;;;10117327;29;20072;-90
2023/04/23 12:35:41;;;;;;;1.20;0.57;;;;;;;;;;10111614;29;20537;-89
2023/04/23 12:40:44;;;;;;;;;;;;;;;;;;10112417;29;20421;-89
2023/04/23 12:45:48;;;;;;;0.35;0.30;;;;;;;;;;10118873;29;20075;-90
2023/04/23 12:50:53;;;;;;;0.47;0.40;;;;;;;;;;10118433;29;20128;-88
2023/04/23 12:55:56;;;;;;;0.55;0.30;;;;;;;;;;10124308;29;20527;-90
2023/04/23 13:01:00;;;;;;;0.45;0.40;;;;;;;;;;10129334;29;20068;-89
2023/04/23 13:06:06;;;;;;;1.75;0.90;;;;;;;;;;10113517;29;20052;-89
2023/04/23 13:11:10;;;;;;;0.85;0.40;;;;;;;;;;10117338;29;20048;-89
2023/04/23 13:16:14;;;;;;;0.57;0.55;;;;;;;;;;10131353;29;20068;-89
2023/04/23 13:21:19;;;;;;;0.85;0.40;;;;;;;;;;10127670;29;20052;-90
2023/04/23 13:26:22;;;;;;;0.60;0.30;;;;;;;;;;10111607;29;20092;-89
2023/04/23 13:31:26;;;;;;;0.80;0.32;;;;;;;;;;10134358;29;20754;-90
2023/04/23 13:36:31;;;;;;;0.30;0.30;;;;;;;;;;10110823;29;20048;-90
2023/04/23 13:41:34;;;;;;;0.45;0.40;;;;;;;;;;10136191;29;20137;-89
2023/04/23 13:46:38;;;;;;;1.23;0.43;;;;;;;;;;10135793;29;20075;-90
2023/04/23 13:51:43;;;;;;;0.50;0.50;;;;;;;;;;10137438;29;20052;-90
2023/04/23 13:56:47;;;;;;;0.70;0.55;;;;;;;;;;10133005;29;20114;-90
2023/04/23 14:01:51;;;;;;;0.40;0.35;;;;;;;;;;10122065;29;20524;-90
2023/04/23 14:06:56;;;;;;;0.88;0.40;;;;;;;;;;10131661;29;20112;-91
2023/04/23 14:12:00;;;;;;;0.50;0.40;;;;;;;;;;10139959;29;20052;-91
2023/04/23 14:17:03;;;;;;;0.75;0.52;;;;;;;;;;10080416;29;20060;-90
2023/04/23 14:22:08;;;;;;;1.00;0.40;;;;;;;;;;10127122;29;20049;-90
2023/04/23 14:27:12;;;;;;;0.80;0.40;;;;;;;;;;10089044;29;20082;-89
2023/04/23 14:32:15;;;;;;;1.23;0.60;;;;;;;;;;10084201;29;20067;-90
2023/04/23 14:37:21;;;;;;;0.35;0.32;;;;;;;;;;10086652;29;20531;-90
2023/04/23 14:42:25;;;;;;;0.35;0.35;;;;;;;;;;10087524;29;20139;-91
2023/04/23 14:47:28;;;;;;;0.55;0.35;;;;;;;;;;10086557;29;20566;-90
2023/04/23 14:52:33;;;;;;;0.88;0.75;;;;;;;;;;10081522;29;20064;-91
2023/04/23 14:57:49;;;;;;;1.08;0.50;;;;;;;;;;10086448;29;20582;-90
2023/04/23 15:02:56;;;;;;;1.02;0.57;;;;;;;;;;10093139;29;20071;-91
2023/04/23 15:08:01;;;;;;;0.95;0.40;;;;;;;;;;10096157;29;20045;-90
2023/04/23 15:13:08;;;;;;;1.02;0.40;;;;;;;;;;10087440;29;20052;-90
2023/04/23 15:18:13;;;;;;;0.73;0.52;;;;;;;;;;10102405;29;20053;-90
2023/04/23 15:23:19;;;;;;;0.75;0.45;;;;;;;;;;10101169;29;20417;-90
2023/04/23 15:28:23;;;;;;;1.30;0.50;;;;;;;;;;10122960;29;20139;-90
2023/04/23 15:33:28;;;;;;;2.70;0.70;;;;;;;;;;10133727;29;20657;-90
2023/04/23 15:38:33;;;;;;;1.00;0.65;;;;;;;;;;10117870;29;20056;-90
2023/04/23 15:43:36;;;;;;;0.70;0.60;;;;;;;;;;10132318;29;20447;-90
2023/04/23 15:48:40;;;;;;;0.90;0.60;;;;;;;;;;10121143;29;20060;-90
2023/04/23 15:53:45;;;;;;;0.60;0.32;;;;;;;;;;10132204;29;20044;-91
2023/04/23 15:58:49;;;;;;;3.40;0.60;;;;;;;;;;10116718;29;20569;-91
2023/04/23 16:03:53;;;;;;;0.52;0.40;;;;;;;;;;10125138;29;20760;-92
2023/04/23 16:09:12;;;;;;;0.65;0.40;;;;;;;;;;10130398;29;20060;-93
2023/04/23 16:14:16;;;;;;;0.40;0.40;;;;;;;;;;10139632;29;20049;-91
2023/04/23 16:19:20;;;;;;;0.98;0.60;;;;;;;;;;10131286;29;20292;-92
2023/04/23 16:24:25;;;;;;;0.60;0.60;;;;;;;;;;10130679;29;20092;-92
2023/04/23 16:29:28;;;;;;;0.85;0.60;;;;;;;;;;10134178;29;20053;-92
2023/04/23 16:34:32;;;;;;;0.60;0.60;;;;;;;;;;10140695;29;20056;-92
2023/04/23 16:39:40;;;;;;;;;;;;;;;;;;10134335;29;20063;-92
2023/04/23 16:44:45;;;;;;;0.43;0.43;;;;;;;;;;10138909;29;20006;-92
2023/04/23 16:49:48;;;;;;;0.93;0.60;;;;;;;;;;10132353;29;20048;-93
2023/04/23 16:54:53;;;;;;;2.15;0.30;;;;;;;;;;10133474;29;20507;-92
2023/04/23 16:59:57;;;;;;;0.63;0.60;;;;;;;;;;10124884;29;20096;-92
2023/04/23 17:05:00;;;;;;;1.50;1.00;;;;;;;;;;10126313;29;20116;-91
2023/04/23 17:10:06;;;;;;;1.30;0.60;;;;;;;;;;10132892;29;20076;-93
2023/04/23 17:15:11;;;;;;;3.67;1.35;;;;;;;;;;10132602;29;20060;-92
2023/04/23 17:20:14;;;;;;;3.25;1.45;;;;;;;;;;10124548;29;20056;-92
2023/04/23 17:25:20;;;;;;;1.33;0.80;;;;;;;;;;10127212;29;20052;-92
2023/04/23 17:30:23;;;;;;;2.30;0.80;;;;;;;;;;10130055;29;20100;-92
2023/04/23 17:35:27;;;;;;;2.15;0.55;;;;;;;;;;10125453;29;20134;-92
2023/04/23 17:40:32;;;;;;;0.68;0.60;;;;;;;;;;10138966;29;20045;-92
2023/04/23 17:45:36;;;;;;;0.57;0.40;;;;;;;;;;10125550;29;20061;-92
2023/04/23 17:50:40;;;;;;;1.63;0.60;;;;;;;;;;10139683;29;20064;-92
2023/04/23 17:55:45;;;;;;;1.30;0.80;;;;;;;;;;10126746;29;20163;-91
2023/04/23 18:00:48;;;;;;;0.68;0.55;;;;;;;;;;10201468;23;20107;-82
2023/04/23 18:05:52;;;;;;;0.50;0.50;;;;;;;;;;10165003;29;20051;-83
2023/04/23 18:10:57;;;;;;;0.40;0.40;;;;;;;;;;10117220;29;20044;-83
2023/04/23 18:16:00;;;;;;;0.60;0.40;;;;;;;;;;10123164;29;20045;-83
2023/04/23 18:21:04;;;;;;;0.60;0.60;;;;;;;;;;10117025;29;20100;-83
2023/04/23 18:26:09;;;;;;;1.10;0.57;;;;;;;;;;10128914;29;20421;-83
2023/04/23 18:31:12;;;;;;;2.92;0.60;;;;;;;;;;10115453;29;20079;-84
2023/04/23 18:36:24;;;;;;;0.35;0.20;;;;;;;;;;10113152;29;20045;-83
2023/04/23 18:41:29;;;;;;;0.50;0.50;;;;;;;;;;10138958;29;20056;-83
2023/04/23 18:46:33;;;;;;;0.40;0.30;;;;;;;;;;10134934;29;20069;-84
2023/04/23 18:51:42;;;;;;;0.52;0.40;;;;;;;;;;10107468;29;20072;-83
2023/04/23 18:56:49;;;;;;;0.50;0.40;;;;;;;;;;10109973;29;20413;-82
2023/04/23 19:01:52;;;;;;;0.47;0.43;;;;;;;;;;10129750;29;20135;-83
2023/04/23 19:06:56;;;;;;;0.40;0.40;;;;;;;;;;10110847;29;20045;-83
2023/04/23 19:12:01;;;;;;;1.80;0.35;;;;;;;;;;10131091;29;20861;-83
2023/04/23 19:17:04;;;;;;;0.22;0.22;;;;;;;;;;10102494;29;20083;-83
2023/04/23 19:22:08;;;;;;;2.10;0.40;;;;;;;;;;10123288;29;20057;-84
2023/04/23 19:27:12;;;;;;;0.63;0.60;;;;;;;;;;10107962;29;20068;-83
2023/04/23 19:32:16;;;;;;;0.35;0.35;;;;;;;;;;10113913;29;20451;-83
2023/04/23 19:37:19;;;;;;;0.30;0.30;;;;;;;;;;10102951;29;20065;-82
2023/04/23 19:42:24;;;;;;;0.82;0.47;;;;;;;;;;10103820;29;20055;-83
2023/04/23 19:47:27;;;;;;;0.63;0.35;;;;;;;;;;10125984;29;20067;-83
2023/04/23 19:52:30;;;;;;;0.50;0.50;;;;;;;;;;10124139;29;20474;-83
2023/04/23 19:57:35;;;;;;;0.70;0.40;;;;;;;;;;10143362;29;20059;-83
2023/04/23 20:02:38;;;;;;;0.73;0.52;;;;;;;;;;10168909;29;20091;-84
2023/04/23 20:07:42;;;;;;;0.32;0.25;;;;;;;;;;10154270;29;20044;-83
2023/04/23 20:12:46;;;;;;;0.38;0.32;;;;;;;;;;10147004;29;20622;-82
2023/04/23 20:17:50;;;;;;;0.55;0.45;;;;;;;;;;10141697;29;20730;-83
2023/04/23 20:22:53;;;;;;;0.30;0.30;;;;;;;;;;10137665;29;20058;-83
2023/04/23 20:27:58;;;;;;;0.30;0.30;;;;;;;;;;10157104;29;20067;-82
2023/04/23 20:33:02;;;;;;;0.75;0.60;;;;;;;;;;10142688;29;20052;-82
2023/04/23 20:38:05;;;;;;;0.20;0.20;;;;;;;;;;10159499;29;20115;-83
2023/04/23 20:43:10;;;;;;;0.35;0.20;;;;;;;;;;10160528;29;20425;-83
2023/04/23 20:48:13;;;;;;;0.20;0.20;;;;;;;;;;10151389;29;20056;-82
2023/04/23 20:53:17;;;;;;;0.40;0.20;;;;;;;;;;10172889;29;20048;-83
2023/04/23 20:58:23;;;;;;;0.73;0.47;;;;;;;;;;10144153;29;20067;-82
2023/04/23 21:03:27;;;;;;;0.95;0.65;;;;;;;;;;10163831;29;20560;-82
2023/04/23 21:08:30;;;;;;;1.00;0.60;;;;;;;;;;10148317;29;20580;-83
2023/04/23 21:13:35;;;;;;;4.63;2.08;;;;;;;;;;10166967;29;20052;-83
2023/04/23 21:18:38;;;;;;;4.75;1.92;;;;;;;;;;10149666;29;20056;-83
2023/04/23 21:23:41;;;;;;;3.15;1.60;;;;;;;;;;10146775;29;20561;-83
2023/04/23 21:28:46;;;;;;;2.08;1.20;;;;;;;;;;10142752;29;20056;-83
2023/04/23 21:33:49;;;;;;;4.20;1.95;;;;;;;;;;10146028;29;20059;-83
2023/04/23 21:38:52;;;;;;;3.10;1.40;;;;;;;;;;10160738;29;20052;-83
2023/04/23 21:43:57;;;;;;;3.20;0.90;;;;;;;;;;10143944;29;20052;-83
2023/04/23 21:49:01;;;;;;;2.65;1.15;;;;;;;;;;10144691;29;20322;-84
2023/04/23 21:54:05;;;;;;;4.20;1.55;;;;;;;;;;10157917;29;20070;-83
2023/04/23 21:59:09;;;;;;;2.15;1.25;;;;;;;;;;10157846;29;20179;-83
2023/04/23 22:04:13;;;;;;;1.25;0.60;;;;;;;;;;10167696;29;20048;-83
2023/04/23 22:09:16;;;;;;;1.30;0.52;;;;;;;;;;10169131;29;20059;-83
2023/04/23 22:14:21;;;;;;;0.40;0.30;;;;;;;;;;10153038;29;20155;-83
2023/04/23 22:19:24;;;;;;;0.35;0.35;;;;;;;;;;10166636;29;20052;-82
2023/04/23 22:24:28;;;;;;;2.00;0.40;;;;;;;;;;10148020;29;20191;-82
2023/04/23 22:29:33;;;;;;;0.88;0.40;;;;;;;;;;10171396;29;20517;-83
2023/04/23 22:34:37;;;;;;;0.50;0.40;;;;;;;;;;10166672;29;20048;-83
2023/04/23 22:39:40;;;;;;;0.30;0.30;;;;;;;;;;10148139;29;20060;-83
2023/04/23 22:44:45;;;;;;;0.30;0.30;;;;;;;;;;10155295;29;20063;-83
2023/04/23 22:49:48;;;;;;;0.35;0.35;;;;;;;;;;10164074;29;20623;-83
2023/04/23 22:54:53;;;;;;;0.50;0.50;;;;;;;;;;10161737;29;20083;-83
2023/04/23 22:59:58;;;;;;;1.30;0.30;;;;;;;;;;10158934;29;20055;-83
2023/04/23 23:05:01;;;;;;;0.60;0.47;;;;;;;;;;10167134;29;20070;-83
2023/04/23 23:10:07;;;;;;;0.40;0.30;;;;;;;;;;10151711;29;20096;-83
2023/04/23 23:15:12;;;;;;;1.13;0.28;;;;;;;;;;10173179;29;20064;-82
2023/04/23 23:20:16;;;;;;;0.40;0.22;;;;;;;;;;10142251;29;20056;-83
2023/04/23 23:25:19;;;;;;;0.77;0.22;;;;;;;;;;10147623;29;20125;-82
2023/04/23 23:30:24;;;;;;;0.70;0.40;;;;;;;;;;10166060;29;20052;-83
2023/04/23 23:35:28;;;;;;;0.73;0.15;;;;;;;;;;10150092;29;20071;-83
2023/04/23 23:40:31;;;;;;;1.00;0.30;;;;;;;;;;10149882;29;20082;-83
2023/04/23 23:45:36;;;;;;;0.82;0.30;;;;;;;;;;10171137;29;20060;-82
2023/04/23 23:50:39;;;;;;;0.57;0.30;;;;;;;;;;10157775;29;20058;-83
2023/04/23 23:55:42;;;;;;;1.20;0.40;;;;;;;;;;10165412;29;20052;-82
